Time;durP1;ratioP1;P1;durP2;ratioP2;P2;SDS_P1;SDS_P2;PMS_P1;PMS_P2;Temp;Humidity;BMP_temperature;BMP_pressure;BME280_temperature;BME280_humidity;BME280_pressure;Samples;Min_cycle;Max_cycle;Signal;HPM_P1;HPM_P2
2021/06/03 00:00:32;;;;;;;;;;;;;;;;;;4988313;28;19910;-83
2021/06/03 00:02:57;;;;;;;;;;;;;;;;;;4988072;28;19960;-86
2021/06/03 00:05:23;;;;;;;;;;;;;;;;;;5005075;28;19914;-88
2021/06/03 00:07:48;;;;;;;;;;;;;;;;;;5003570;28;19936;-85
2021/06/03 00:10:13;;;;;;;;;;;;;;;;;;4986394;28;20004;-86
2021/06/03 00:12:38;;;;;;;;;;;;;;;;;;4986410;28;19918;-87
2021/06/03 00:15:03;;;;;;;;;;;;;;;;;;5004146;28;19999;-87
2021/06/03 00:17:28;;;;;;;;;;;;;;;;;;5004322;28;19910;-86
2021/06/03 00:19:53;;;;;;;;;;;;;;;;;;4986396;28;19917;-86
2021/06/03 00:22:18;;;;;;;;;;;;;;;;;;5004088;28;19910;-84
2021/06/03 00:24:45;;;;;;;;;;;;;;;;;;4986270;28;20034;-86
2021/06/03 00:27:10;;;;;;;;;;;;;;;;;;4986056;28;19910;-83
2021/06/03 00:29:36;;;;;;;;;;;;;;;;;;4986289;28;20015;-86
2021/06/03 00:32:01;;;;;;;;;;;;;;;;;;4986103;28;19918;-85
2021/06/03 00:34:26;;;;;;;;;;;;;;;;;;4985292;28;19917;-84
2021/06/03 00:36:51;;;;;;;;;;;;;;;;;;4987667;28;19920;-86
2021/06/03 00:39:16;;;;;;;;;;;;;;;;;;4987972;28;19910;-87
2021/06/03 00:41:41;;;;;;;;;;;;;;;;;;5005469;28;19909;-86
2021/06/03 00:44:06;;;;;;;;;;;;;;;;;;4987285;28;19914;-85
2021/06/03 00:46:31;;;;;;;;;;;;;;;;;;4987125;28;19910;-88
2021/06/03 00:48:57;;;;;;;;;;;;;;;;;;4987968;28;20335;-84
2021/06/03 00:51:24;;;;;;;;;;;;;;;;;;5005233;28;19914;-84
2021/06/03 00:53:49;;;;;;;;;;;;;;;;;;4987663;28;19948;-86
2021/06/03 00:56:14;;;;;;;;;;;;;;;;;;4987799;28;19910;-88
2021/06/03 00:58:39;;;;;;;;;;;;;;;;;;4987363;28;19910;-86
2021/06/03 01:01:04;;;;;;;;;;;;;;;;;;4986795;28;20034;-86
2021/06/03 01:03:30;;;;;;;;;;;;;;;;;;5004815;28;19922;-85
2021/06/03 01:05:55;;;;;;;;;;;;;;;;;;5004292;28;19968;-85
2021/06/03 01:08:20;;;;;;;;;;;;;;;;;;4986700;28;19980;-86
2021/06/03 01:10:47;;;;;;;;;;;;;;;;;;4987603;28;20306;-86
2021/06/03 01:13:13;;;;;;;;;;;;;;;;;;4987652;28;19918;-87
2021/06/03 01:15:39;;;;;;;;;;;;;;;;;;4986311;28;19953;-86
2021/06/03 01:18:04;;;;;;;;;;;;;;;;;;5001650;28;19946;-87
2021/06/03 01:20:33;;;;;;;;;;;;;;;;;;4984762;28;20367;-86
2021/06/03 01:22:58;;;;;;;;;;;;;;;;;;4985866;28;19921;-85
2021/06/03 01:25:23;;;;;;;;;;;;;;;;;;4984757;28;19933;-87
2021/06/03 01:27:48;;;;;;;;;;;;;;;;;;4985158;28;19910;-84
2021/06/03 01:32:41;;;;;;;;;;;;;;;;;;5004842;28;19993;-87
2021/06/03 01:35:06;;;;;;;;;;;;;;;;;;4987423;28;19914;-85
2021/06/03 01:37:31;;;;;;;;;;;;;;;;;;4985942;28;19949;-86
2021/06/03 01:39:57;;;;;;;;;;;;;;;;;;4985828;28;19938;-86
2021/06/03 01:42:22;;;;;;;;;;;;;;;;;;4985771;28;19917;-86
2021/06/03 01:44:47;;;;;;;;;;;;;;;;;;5003468;28;19909;-86
2021/06/03 01:47:12;;;;;;;;;;;;;;;;;;4988242;28;19910;-86
2021/06/03 01:49:37;;;;;;;;;;;;;;;;;;4988686;28;19928;-85
2021/06/03 01:52:02;;;;;;;;;;;;;;;;;;4988730;28;19918;-84
2021/06/03 01:54:27;;;;;;;;;;;;;;;;;;4989367;28;19910;-87
2021/06/03 01:56:52;;;;;;;;;;;;;;;;;;5006702;28;19910;-84
2021/06/03 01:59:18;;;;;;;;;;;;;;;;;;4989177;28;19978;-84
2021/06/03 02:01:43;;;;;;;;;;;;;;;;;;4988147;28;19913;-84
2021/06/03 02:04:08;;;;;;;;;;;;;;;;;;4989702;28;19921;-87
2021/06/03 02:06:33;;;;;;;;;;;;;;;;;;5007612;28;19910;-84
2021/06/03 02:08:58;;;;;;;;;;;;;;;;;;5008321;28;19973;-87
2021/06/03 02:11:23;;;;;;;;;;;;;;;;;;4990502;28;19913;-88
2021/06/03 02:13:48;;;;;;;;;;;;;;;;;;5007007;28;19917;-84
2021/06/03 02:16:13;;;;;;;;;;;;;;;;;;4989660;28;19909;-84
2021/06/03 02:18:39;;;;;;;;;;;;;;;;;;4988540;28;19969;-87
2021/06/03 02:21:04;;;;;;;;;;;;;;;;;;4988057;28;19914;-90
2021/06/03 02:23:29;;;;;;;;;;;;;;;;;;4988966;28;19921;-87
2021/06/03 02:25:54;;;;;;;;;;;;;;;;;;5005826;28;20004;-86
2021/06/03 02:28:19;;;;;;;;;;;;;;;;;;4987643;28;19913;-86
2021/06/03 02:30:44;;;;;;;;;;;;;;;;;;4986235;28;19970;-85
2021/06/03 02:33:09;;;;;;;;;;;;;;;;;;4986285;28;20256;-86
2021/06/03 02:35:34;;;;;;;;;;;;;;;;;;4987206;28;19968;-87
2021/06/03 02:38:00;;;;;;;;;;;;;;;;;;4987580;28;19988;-85
2021/06/03 02:40:25;;;;;;;;;;;;;;;;;;4987020;28;19918;-87
2021/06/03 02:42:50;;;;;;;;;;;;;;;;;;4986919;28;19909;-86
2021/06/03 02:45:15;;;;;;;;;;;;;;;;;;4986016;28;19917;-84
2021/06/03 02:47:40;;;;;;;;;;;;;;;;;;4986345;28;19921;-88
2021/06/03 02:50:05;;;;;;;;;;;;;;;;;;4987687;28;20366;-86
2021/06/03 02:52:30;;;;;;;;;;;;;;;;;;4986957;28;19917;-84
2021/06/03 02:54:55;;;;;;;;;;;;;;;;;;5004885;28;19976;-87
2021/06/03 02:57:20;;;;;;;;;;;;;;;;;;5003805;28;19957;-85
2021/06/03 02:59:46;;;;;;;;;;;;;;;;;;4986376;28;19994;-84
2021/06/03 03:02:11;;;;;;;;;;;;;;;;;;4986470;28;19916;-88
2021/06/03 03:04:36;;;;;;;;;;;;;;;;;;4986539;28;19925;-85
2021/06/03 03:07:01;;;;;;;;;;;;;;;;;;5003628;28;19914;-86
2021/06/03 03:09:26;;;;;;;;;;;;;;;;;;4986089;28;19933;-86
2021/06/03 03:11:51;;;;;;;;;;;;;;;;;;4986010;28;19918;-86
2021/06/03 03:14:16;;;;;;;;;;;;;;;;;;5003655;28;19960;-83
2021/06/03 03:16:41;;;;;;;;;;;;;;;;;;5003863;28;19910;-85
2021/06/03 03:19:07;;;;;;;;;;;;;;;;;;4986228;28;20371;-85
2021/06/03 03:21:32;;;;;;;;;;;;;;;;;;4986173;28;19910;-87
2021/06/03 03:23:57;;;;;;;;;;;;;;;;;;4985257;28;19952;-85
2021/06/03 03:26:23;;;;;;;;;;;;;;;;;;5002680;28;20367;-84
2021/06/03 03:28:48;;;;;;;;;;;;;;;;;;4985531;28;19965;-88
2021/06/03 03:31:14;;;;;;;;;;;;;;;;;;4988015;28;19910;-85
2021/06/03 03:33:39;;;;;;;;;;;;;;;;;;4989322;28;19964;-85
2021/06/03 03:36:05;;;;;;;;;;;;;;;;;;4989052;28;19946;-87
2021/06/03 03:38:30;;;;;;;;;;;;;;;;;;4986198;28;19974;-85
2021/06/03 03:40:55;;;;;;;;;;;;;;;;;;4986354;28;19937;-86
2021/06/03 03:43:21;;;;;;;;;;;;;;;;;;4985491;28;19949;-85
2021/06/03 03:45:46;;;;;;;;;;;;;;;;;;4985784;28;19913;-85
2021/06/03 03:48:11;;;;;;;;;;;;;;;;;;4986473;28;19957;-84
2021/06/03 03:50:36;;;;;;;;;;;;;;;;;;4987312;28;19921;-87
2021/06/03 03:53:01;;;;;;;;;;;;;;;;;;4987040;28;19917;-87
2021/06/03 03:55:26;;;;;;;;;;;;;;;;;;4985262;28;19920;-85
2021/06/03 03:57:51;;;;;;;;;;;;;;;;;;5003727;28;19916;-83
2021/06/03 04:00:16;;;;;;;;;;;;;;;;;;4987495;28;19914;-86
2021/06/03 04:02:41;;;;;;;;;;;;;;;;;;4986874;28;20352;-86
2021/06/03 04:05:07;;;;;;;;;;;;;;;;;;4986438;28;19918;-84
2021/06/03 04:07:32;;;;;;;;;;;;;;;;;;5004040;28;19980;-85
2021/06/03 04:09:57;;;;;;;;;;;;;;;;;;4986064;28;19909;-86
2021/06/03 04:12:22;;;;;;;;;;;;;;;;;;4986397;28;19917;-85
2021/06/03 04:14:47;;;;;;;;;;;;;;;;;;4985849;28;19957;-86
2021/06/03 04:17:15;;;;;;;;;;;;;;;;;;5004088;28;19910;-85
2021/06/03 04:19:41;;;;;;;;;;;;;;;;;;4986313;28;19910;-87
2021/06/03 04:22:06;;;;;;;;;;;;;;;;;;4986222;28;19918;-84
2021/06/03 04:24:31;;;;;;;;;;;;;;;;;;4987431;28;19956;-86
2021/06/03 04:26:57;;;;;;;;;;;;;;;;;;4992039;28;19941;-85
2021/06/03 04:29:23;;;;;;;;;;;;;;;;;;4987510;28;20017;-87
2021/06/03 04:31:49;;;;;;;;;;;;;;;;;;4986632;28;20004;-83
2021/06/03 04:34:14;;;;;;;;;;;;;;;;;;5002769;28;20021;-88
2021/06/03 04:36:39;;;;;;;;;;;;;;;;;;4985614;28;19913;-84
2021/06/03 04:39:04;;;;;;;;;;;;;;;;;;4985566;28;19921;-84
2021/06/03 04:41:29;;;;;;;;;;;;;;;;;;4985901;28;19917;-87
2021/06/03 04:43:54;;;;;;;;;;;;;;;;;;4985904;28;20008;-84
2021/06/03 04:46:19;;;;;;;;;;;;;;;;;;4985916;28;19944;-85
2021/06/03 04:48:44;;;;;;;;;;;;;;;;;;4985704;28;20308;-88
2021/06/03 04:51:11;;;;;;;;;;;;;;;;;;4986615;28;19910;-86
2021/06/03 04:53:36;;;;;;;;;;;;;;;;;;4984996;28;19941;-84
2021/06/03 04:56:01;;;;;;;;;;;;;;;;;;4984330;28;19910;-85
2021/06/03 04:58:29;;;;;;;;;;;;;;;;;;4984782;28;19924;-85
2021/06/03 05:00:54;;;;;;;;;;;;;;;;;;4984197;28;19910;-85
2021/06/03 05:03:19;;;;;;;;;;;;;;;;;;4983331;28;19937;-86
2021/06/03 05:05:44;;;;;;;;;;;;;;;;;;5000721;28;19914;-84
2021/06/03 05:08:10;;;;;;;;;;;;;;;;;;4984376;28;20490;-87
2021/06/03 05:10:35;;;;;;;;;;;;;;;;;;5001515;28;19910;-86
2021/06/03 05:13:01;;;;;;;;;;;;;;;;;;4984809;28;19924;-86
2021/06/03 05:15:26;;;;;;;;;;;;;;;;;;4985356;28;19917;-84
2021/06/03 05:17:52;;;;;;;;;;;;;;;;;;4986745;28;19917;-85
2021/06/03 05:20:22;;;;;;;;;;;;;;;;;;5003019;28;19938;-83
2021/06/03 05:22:47;;;;;;;;;;;;;;;;;;4987405;28;19910;-85
2021/06/03 05:25:12;;;;;;;;;;;;;;;;;;4987072;28;19918;-85
2021/06/03 05:27:37;;;;;;;;;;;;;;;;;;4986283;28;19957;-86
2021/06/03 05:30:02;;;;;;;;;;;;;;;;;;4986237;28;19920;-87
2021/06/03 05:32:27;;;;;;;;;;;;;;;;;;4987860;28;19924;-87
2021/06/03 05:34:52;;;;;;;;;;;;;;;;;;5003210;28;20013;-87
2021/06/03 05:37:17;;;;;;;;;;;;;;;;;;4979711;28;19960;-87
2021/06/03 05:39:42;;;;;;;;;;;;;;;;;;4977299;28;19964;-85
2021/06/03 05:42:08;;;;;;;;;;;;;;;;;;4977242;28;20406;-87
2021/06/03 05:44:33;;;;;;;;;;;;;;;;;;4968911;28;19910;-85
2021/06/03 05:46:58;;;;;;;;;;;;;;;;;;4963644;28;19917;-87
2021/06/03 05:49:23;;;;;;;;;;;;;;;;;;4967358;28;19910;-83
2021/06/03 05:51:48;;;;;;;;;;;;;;;;;;4978497;28;20001;-85
2021/06/03 05:54:14;;;;;;;;;;;;;;;;;;4977503;28;19941;-83
2021/06/03 05:56:39;;;;;;;;;;;;;;;;;;4980332;28;20403;-83
2021/06/03 05:59:04;;;;;;;;;;;;;;;;;;4961112;28;19917;-86
2021/06/03 06:01:30;;;;;;;;;;;;;;;;;;4982077;28;19906;-86
2021/06/03 06:08:48;;;;;;;;;;;;;;;;;;4977327;28;19917;-85
2021/06/03 06:11:13;;;;;;;;;;;;;;;;;;4960619;28;19913;-83
2021/06/03 06:13:38;;;;;;;;;;;;;;;;;;4961303;28;19914;-86
2021/06/03 06:16:03;;;;;;;;;;;;;;;;;;4961729;28;19958;-83
2021/06/03 06:18:28;;;;;;;;;;;;;;;;;;4979942;28;19933;-85
2021/06/03 06:20:54;;;;;;;;;;;;;;;;;;4979305;28;19910;-86
2021/06/03 06:23:19;;;;;;;;;;;;;;;;;;4962598;28;19969;-81
2021/06/03 06:25:44;;;;;;;;;;;;;;;;;;4959424;28;19917;-83
2021/06/03 06:28:09;;;;;;;;;;;;;;;;;;4959177;28;19910;-83
2021/06/03 06:30:34;;;;;;;;;;;;;;;;;;4960316;28;19917;-86
2021/06/03 06:33:00;;;;;;;;;;;;;;;;;;4960449;28;19962;-84
2021/06/03 06:35:25;;;;;;;;;;;;;;;;;;4961573;28;19921;-86
2021/06/03 06:37:50;;;;;;;;;;;;;;;;;;4961246;28;19965;-85
2021/06/03 06:40:15;;;;;;;;;;;;;;;;;;4960456;28;19977;-84
2021/06/03 06:42:40;;;;;;;;;;;;;;;;;;4979447;28;19910;-83
2021/06/03 06:45:05;;;;;;;;;;;;;;;;;;4961554;28;19914;-86
2021/06/03 06:47:33;;;;;;;;;;;;;;;;;;4979842;28;19977;-86
2021/06/03 06:49:58;;;;;;;;;;;;;;;;;;4979410;28;19910;-85
2021/06/03 06:52:23;;;;;;;;;;;;;;;;;;4979705;28;19918;-84
2021/06/03 06:54:48;;;;;;;;;;;;;;;;;;4963819;28;19910;-83
2021/06/03 06:57:14;;;;;;;;;;;;;;;;;;4963490;28;19911;-84
2021/06/03 06:59:39;;;;;;;;;;;;;;;;;;4976822;28;19942;-83
2021/06/03 07:02:04;;;;;;;;;;;;;;;;;;4959024;28;20004;-83
2021/06/03 07:04:29;;;;;;;;;;;;;;;;;;4959597;28;19915;-84
2021/06/03 07:06:54;;;;;;;;;;;;;;;;;;4958775;28;20376;-84
2021/06/03 07:09:20;;;;;;;;;;;;;;;;;;4959028;28;19910;-85
2021/06/03 07:11:45;;;;;;;;;;;;;;;;;;4976317;28;20327;-82
2021/06/03 07:14:10;;;;;;;;;;;;;;;;;;4976729;28;19910;-82
2021/06/03 07:16:35;;;;;;;;;;;;;;;;;;4958593;28;19910;-82
2021/06/03 07:19:00;;;;;;;;;;;;;;;;;;4975720;28;19910;-82
2021/06/03 07:21:25;;;;;;;;;;;;;;;;;;4958186;28;19914;-81
2021/06/03 07:23:50;;;;;;;;;;;;;;;;;;4957942;28;19922;-83
2021/06/03 07:26:15;;;;;;;;;;;;;;;;;;4975536;28;20394;-82
2021/06/03 07:28:41;;;;;;;;;;;;;;;;;;4958012;28;20009;-81
2021/06/03 07:31:06;;;;;;;;;;;;;;;;;;4957948;28;19917;-82
2021/06/03 07:33:31;;;;;;;;;;;;;;;;;;4975983;28;19930;-81
2021/06/03 07:35:56;;;;;;;;;;;;;;;;;;4957933;28;19918;-81
2021/06/03 07:38:23;;;;;;;;;;;;;;;;;;4958232;28;20342;-82
2021/06/03 07:40:48;;;;;;;;;;;;;;;;;;4957947;28;19910;-82
2021/06/03 07:43:13;;;;;;;;;;;;;;;;;;4975258;28;20012;-82
2021/06/03 07:45:39;;;;;;;;;;;;;;;;;;4957920;28;19914;-80
2021/06/03 07:48:04;;;;;;;;;;;;;;;;;;4958144;28;19910;-80
2021/06/03 07:50:29;;;;;;;;;;;;;;;;;;4958240;28;19926;-82
2021/06/03 07:52:54;;;;;;;;;;;;;;;;;;4975970;28;19961;-83
2021/06/03 07:55:19;;;;;;;;;;;;;;;;;;4958338;28;19957;-84
2021/06/03 07:57:44;;;;;;;;;;;;;;;;;;4959262;28;20393;-83
2021/06/03 08:00:09;;;;;;;;;;;;;;;;;;4958372;28;19917;-84
2021/06/03 08:02:34;;;;;;;;;;;;;;;;;;4975077;28;19917;-83
2021/06/03 08:05:00;;;;;;;;;;;;;;;;;;4957901;28;19914;-85
2021/06/03 08:07:25;;;;;;;;;;;;;;;;;;4973259;28;19949;-83
2021/06/03 08:09:50;;;;;;;;;;;;;;;;;;4954250;28;19910;-82
2021/06/03 08:12:15;;;;;;;;;;;;;;;;;;4953940;28;19918;-82
2021/06/03 08:14:40;;;;;;;;;;;;;;;;;;4954167;28;19937;-82
2021/06/03 08:17:05;;;;;;;;;;;;;;;;;;4953595;28;20292;-81
2021/06/03 08:19:30;;;;;;;;;;;;;;;;;;4955041;28;19910;-83
2021/06/03 08:21:55;;;;;;;;;;;;;;;;;;4954844;28;19910;-83
2021/06/03 08:24:20;;;;;;;;;;;;;;;;;;4955939;28;19922;-83
2021/06/03 08:26:50;;;;;;;;;;;;;;;;;;4957283;28;20390;-83
2021/06/03 08:29:15;;;;;;;;;;;;;;;;;;4957557;28;20272;-84
2021/06/03 08:31:40;;;;;;;;;;;;;;;;;;4974621;28;20283;-83
2021/06/03 08:34:06;;;;;;;;;;;;;;;;;;4974911;28;20241;-83
2021/06/03 08:36:31;;;;;;;;;;;;;;;;;;4975033;28;19920;-82
2021/06/03 08:38:56;;;;;;;;;;;;;;;;;;4974780;28;19914;-83
2021/06/03 08:41:22;;;;;;;;;;;;;;;;;;4975062;28;19910;-83
2021/06/03 08:43:48;;;;;;;;;;;;;;;;;;4974543;28;20000;-83
2021/06/03 08:46:13;;;;;;;;;;;;;;;;;;4957332;28;19910;-83
2021/06/03 08:48:38;;;;;;;;;;;;;;;;;;4975009;28;19980;-84
2021/06/03 08:51:03;;;;;;;;;;;;;;;;;;4974765;28;19910;-82
2021/06/03 08:53:28;;;;;;;;;;;;;;;;;;4957280;28;19941;-82
2021/06/03 08:58:37;;;;;;;;;;;;;;;;;;4975834;28;19964;-84
2021/06/03 09:01:02;;;;;;;;;;;;;;;;;;4978024;28;19961;-84
2021/06/03 09:03:27;;;;;;;;;;;;;;;;;;4974500;28;19914;-82
2021/06/03 09:05:52;;;;;;;;;;;;;;;;;;4974792;28;19961;-82
2021/06/03 09:08:18;;;;;;;;;;;;;;;;;;4974174;28;20005;-83
2021/06/03 09:10:43;;;;;;;;;;;;;;;;;;4957459;28;20383;-83
2021/06/03 09:13:08;;;;;;;;;;;;;;;;;;4956720;28;19950;-83
2021/06/03 09:15:33;;;;;;;;;;;;;;;;;;4956810;28;20294;-83
2021/06/03 09:17:58;;;;;;;;;;;;;;;;;;4956684;28;19914;-84
2021/06/03 09:20:25;;;;;;;;;;;;;;;;;;4974429;28;19914;-82
2021/06/03 09:22:53;;;;;;;;;;;;;;;;;;4974111;28;19910;-83
2021/06/03 09:25:18;;;;;;;;;;;;;;;;;;4956859;28;19934;-84
2021/06/03 09:27:43;;;;;;;;;;;;;;;;;;4973794;28;20006;-84
2021/06/03 09:30:08;;;;;;;;;;;;;;;;;;4956848;28;20291;-83
2021/06/03 09:32:33;;;;;;;;;;;;;;;;;;4956589;28;19929;-83
2021/06/03 09:34:58;;;;;;;;;;;;;;;;;;4974057;28;19985;-83
2021/06/03 09:37:23;;;;;;;;;;;;;;;;;;4956721;28;19917;-84
2021/06/03 09:39:50;;;;;;;;;;;;;;;;;;4958818;28;20272;-81
2021/06/03 09:42:16;;;;;;;;;;;;;;;;;;4956372;28;20248;-82
2021/06/03 09:44:41;;;;;;;;;;;;;;;;;;4976268;28;19906;-83
2021/06/03 09:47:06;;;;;;;;;;;;;;;;;;4973719;28;20034;-82
2021/06/03 09:49:31;;;;;;;;;;;;;;;;;;4956335;28;19910;-83
2021/06/03 09:51:57;;;;;;;;;;;;;;;;;;4956484;28;19918;-83
2021/06/03 09:54:23;;;;;;;;;;;;;;;;;;4956319;28;19945;-84
2021/06/03 09:56:49;;;;;;;;;;;;;;;;;;4956578;28;19910;-83
2021/06/03 09:59:14;;;;;;;;;;;;;;;;;;4956419;28;19916;-83
2021/06/03 10:01:39;;;;;;;;;;;;;;;;;;4956362;28;19910;-83
2021/06/03 10:04:05;;;;;;;;;;;;;;;;;;4973958;28;20005;-83
2021/06/03 10:06:30;;;;;;;;;;;;;;;;;;4973838;28;19915;-84
2021/06/03 10:08:56;;;;;;;;;;;;;;;;;;4958449;28;19917;-84
2021/06/03 10:11:21;;;;;;;;;;;;;;;;;;4959795;28;20367;-83
2021/06/03 10:13:46;;;;;;;;;;;;;;;;;;4959771;28;19921;-83
2021/06/03 10:16:11;;;;;;;;;;;;;;;;;;4959619;28;19917;-85
2021/06/03 10:18:36;;;;;;;;;;;;;;;;;;4959505;28;19918;-83
2021/06/03 10:21:01;;;;;;;;;;;;;;;;;;4959610;28;19910;-88
2021/06/03 10:23:28;;;;;;;;;;;;;;;;;;4959685;28;19922;-83
2021/06/03 10:25:53;;;;;;;;;;;;;;;;;;4977085;28;20356;-83
2021/06/03 10:28:19;;;;;;;;;;;;;;;;;;4976791;28;20540;-84
2021/06/03 10:30:44;;;;;;;;;;;;;;;;;;4959611;28;19914;-82
2021/06/03 10:33:11;;;;;;;;;;;;;;;;;;4959117;28;19926;-84
2021/06/03 10:35:36;;;;;;;;;;;;;;;;;;4959161;28;19973;-83
2021/06/03 10:38:02;;;;;;;;;;;;;;;;;;4961920;28;20125;-84
2021/06/03 10:40:27;;;;;;;;;;;;;;;;;;4976691;28;19980;-85
2021/06/03 10:42:52;;;;;;;;;;;;;;;;;;4961491;28;19977;-83
2021/06/03 10:45:18;;;;;;;;;;;;;;;;;;4959140;28;19910;-84
2021/06/03 10:47:43;;;;;;;;;;;;;;;;;;4976421;28;19910;-82
2021/06/03 10:50:08;;;;;;;;;;;;;;;;;;4978812;28;19916;-83
2021/06/03 10:52:33;;;;;;;;;;;;;;;;;;4959015;28;19941;-83
2021/06/03 10:54:58;;;;;;;;;;;;;;;;;;4959046;28;20379;-84
2021/06/03 10:57:23;;;;;;;;;;;;;;;;;;4976573;28;19953;-84
2021/06/03 10:59:49;;;;;;;;;;;;;;;;;;4976131;28;19940;-83
2021/06/03 11:02:14;;;;;;;;;;;;;;;;;;4958525;28;19965;-83
2021/06/03 11:04:39;;;;;;;;;;;;;;;;;;4958617;28;20050;-82
2021/06/03 11:07:04;;;;;;;;;;;;;;;;;;4958363;28;19914;-82
2021/06/03 11:09:29;;;;;;;;;;;;;;;;;;4975805;28;19938;-82
2021/06/03 11:11:54;;;;;;;;;;;;;;;;;;4958865;28;20302;-85
2021/06/03 11:14:20;;;;;;;;;;;;;;;;;;4959131;28;19945;-84
2021/06/03 11:16:46;;;;;;;;;;;;;;;;;;4959236;28;20332;-84
2021/06/03 11:19:11;;;;;;;;;;;;;;;;;;4958584;28;19997;-84
2021/06/03 11:24:01;;;;;;;;;;;;;;;;;;4975935;28;19960;-83
2021/06/03 11:26:26;;;;;;;;;;;;;;;;;;4960419;28;19997;-83
2021/06/03 11:28:51;;;;;;;;;;;;;;;;;;4958531;28;19914;-84
2021/06/03 11:31:16;;;;;;;;;;;;;;;;;;4977659;28;20311;-86
2021/06/03 11:33:42;;;;;;;;;;;;;;;;;;4979329;28;20301;-85
2021/06/03 11:36:07;;;;;;;;;;;;;;;;;;4961811;28;19973;-83
2021/06/03 11:38:32;;;;;;;;;;;;;;;;;;4960491;28;19918;-84
2021/06/03 11:40:57;;;;;;;;;;;;;;;;;;4959140;28;19922;-85
2021/06/03 11:43:22;;;;;;;;;;;;;;;;;;4975881;28;19917;-84
2021/06/03 11:45:49;;;;;;;;;;;;;;;;;;4980198;28;19921;-86
2021/06/03 11:48:14;;;;;;;;;;;;;;;;;;4961636;28;19968;-86
2021/06/03 11:50:39;;;;;;;;;;;;;;;;;;4960483;28;20378;-88
2021/06/03 11:53:05;;;;;;;;;;;;;;;;;;4979282;28;19918;-86
2021/06/03 11:55:30;;;;;;;;;;;;;;;;;;4963204;28;19917;-86
2021/06/03 11:57:55;;;;;;;;;;;;;;;;;;4964185;28;20004;-87
2021/06/03 12:00:20;;;;;;;;;;;;;;;;;;4964915;28;20295;-87
2021/06/03 12:02:45;;;;;;;;;;;;;;;;;;4965330;28;19914;-85
2021/06/03 12:05:14;;;;;;;;;;;;;;;;;;4966234;28;19914;-87
2021/06/03 12:07:39;;;;;;;;;;;;;;;;;;4963795;28;20054;-84
2021/06/03 12:10:04;;;;;;;;;;;;;;;;;;4980537;28;19951;-85
2021/06/03 12:12:29;;;;;;;;;;;;;;;;;;4964402;28;19962;-84
2021/06/03 12:14:54;;;;;;;;;;;;;;;;;;4963241;28;19957;-85
2021/06/03 12:17:24;;;;;;;;;;;;;;;;;;4963459;28;19944;-87
2021/06/03 12:19:52;;;;;;;;;;;;;;;;;;4963560;28;20363;-86
2021/06/03 12:22:26;;;;;;;;;;;;;;;;;;4982335;28;20272;-86
2021/06/03 12:24:51;;;;;;;;;;;;;;;;;;4979667;28;19929;-86
2021/06/03 12:27:17;;;;;;;;;;;;;;;;;;4963206;28;19914;-85
2021/06/03 12:29:42;;;;;;;;;;;;;;;;;;4985472;28;19914;-86
2021/06/03 12:32:07;;;;;;;;;;;;;;;;;;4993742;28;19971;-86
2021/06/03 12:34:32;;;;;;;;;;;;;;;;;;4984547;28;19976;-86
2021/06/03 12:36:57;;;;;;;;;;;;;;;;;;4978732;28;19976;-84
2021/06/03 12:39:23;;;;;;;;;;;;;;;;;;4980813;28;20605;-84
2021/06/03 12:41:48;;;;;;;;;;;;;;;;;;4980288;28;19910;-85
2021/06/03 12:44:13;;;;;;;;;;;;;;;;;;4980205;28;19949;-86
2021/06/03 12:46:38;;;;;;;;;;;;;;;;;;4980808;28;19996;-87
2021/06/03 12:49:04;;;;;;;;;;;;;;;;;;4979973;28;19910;-86
2021/06/03 12:51:29;;;;;;;;;;;;;;;;;;4979997;28;20322;-86
2021/06/03 12:53:54;;;;;;;;;;;;;;;;;;4998622;28;19914;-87
2021/06/03 12:56:23;;;;;;;;;;;;;;;;;;4980456;28;19996;-85
2021/06/03 12:58:48;;;;;;;;;;;;;;;;;;4980099;28;19920;-86
2021/06/03 13:01:15;;;;;;;;;;;;;;;;;;4978923;28;19910;-83
2021/06/03 13:03:40;;;;;;;;;;;;;;;;;;4996838;28;19934;-88
2021/06/03 13:06:05;;;;;;;;;;;;;;;;;;4980221;28;19922;-86
2021/06/03 13:08:30;;;;;;;;;;;;;;;;;;4978777;28;20347;-85
2021/06/03 13:10:56;;;;;;;;;;;;;;;;;;4981006;28;20355;-87
2021/06/03 13:13:21;;;;;;;;;;;;;;;;;;4996572;28;20382;-85
2021/06/03 13:15:46;;;;;;;;;;;;;;;;;;4978076;28;19984;-84
2021/06/03 13:20:40;;;;;;;;;;;;;;;;;;4997840;28;19910;-87
2021/06/03 13:23:05;;;;;;;;;;;;;;;;;;4982166;28;19944;-84
2021/06/03 13:25:30;;;;;;;;;;;;;;;;;;4982060;28;20013;-87
2021/06/03 13:27:55;;;;;;;;;;;;;;;;;;4981814;28;19910;-83
2021/06/03 13:30:20;;;;;;;;;;;;;;;;;;4978587;28;19916;-85
2021/06/03 13:32:45;;;;;;;;;;;;;;;;;;4979147;28;20572;-86
2021/06/03 13:35:14;;;;;;;;;;;;;;;;;;4978349;28;19921;-86
2021/06/03 13:37:39;;;;;;;;;;;;;;;;;;4979417;28;20360;-85
2021/06/03 13:40:04;;;;;;;;;;;;;;;;;;4979032;28;19917;-86
2021/06/03 13:42:29;;;;;;;;;;;;;;;;;;4985461;28;19910;-85
2021/06/03 13:44:55;;;;;;;;;;;;;;;;;;4986181;28;20005;-84
2021/06/03 13:47:20;;;;;;;;;;;;;;;;;;4982298;28;20315;-85
2021/06/03 13:49:46;;;;;;;;;;;;;;;;;;4982130;28;19916;-84
2021/06/03 13:52:11;;;;;;;;;;;;;;;;;;4983440;28;20027;-85
2021/06/03 13:54:36;;;;;;;;;;;;;;;;;;4982101;28;20405;-86
2021/06/03 13:59:46;;;;;;;;;;;;;;;;;;4998799;28;19969;-85
2021/06/03 14:02:11;;;;;;;;;;;;;;;;;;4980971;28;19932;-87
2021/06/03 14:04:36;;;;;;;;;;;;;;;;;;4998594;28;20004;-87
2021/06/03 14:07:01;;;;;;;;;;;;;;;;;;4998766;28;19966;-87
2021/06/03 14:09:28;;;;;;;;;;;;;;;;;;4981148;28;19972;-86
2021/06/03 14:14:24;;;;;;;;;;;;;;;;;;5000340;28;19949;-86
2021/06/03 14:16:49;;;;;;;;;;;;;;;;;;4981631;28;19917;-87
2021/06/03 14:19:14;;;;;;;;;;;;;;;;;;4998227;28;19949;-86
2021/06/03 14:21:39;;;;;;;;;;;;;;;;;;4980458;28;19910;-86
2021/06/03 14:24:04;;;;;;;;;;;;;;;;;;4997499;28;19922;-86
2021/06/03 14:26:29;;;;;;;;;;;;;;;;;;4980775;28;19910;-87
2021/06/03 14:28:54;;;;;;;;;;;;;;;;;;4999328;28;19957;-87
2021/06/03 14:31:19;;;;;;;;;;;;;;;;;;4977647;28;19910;-85
2021/06/03 14:33:45;;;;;;;;;;;;;;;;;;4979628;28;19950;-86
2021/06/03 14:36:10;;;;;;;;;;;;;;;;;;4979451;28;20356;-87
2021/06/03 14:38:35;;;;;;;;;;;;;;;;;;4978003;28;20375;-87
2021/06/03 14:41:00;;;;;;;;;;;;;;;;;;4978863;28;19957;-87
2021/06/03 14:43:35;;;;;;;;;;;;;;;;;;4978551;28;19910;-89
2021/06/03 14:46:02;;;;;;;;;;;;;;;;;;4980181;28;19910;-87
2021/06/03 14:53:43;;;;;;;;;;;;;;;;;;4988482;28;19922;-85
2021/06/03 14:56:08;;;;;;;;;;;;;;;;;;4982156;28;19909;-86
2021/06/03 14:58:33;;;;;;;;;;;;;;;;;;4980945;28;19909;-88
2021/06/03 15:00:58;;;;;;;;;;;;;;;;;;4981365;28;20371;-85
2021/06/03 15:03:23;;;;;;;;;;;;;;;;;;4981570;28;19910;-86
2021/06/03 15:05:49;;;;;;;;;;;;;;;;;;4980987;28;20382;-86
2021/06/03 15:08:14;;;;;;;;;;;;;;;;;;4981572;28;19932;-87
2021/06/03 15:10:43;;;;;;;;;;;;;;;;;;4980036;28;20309;-87
2021/06/03 15:13:08;;;;;;;;;;;;;;;;;;4980737;28;19960;-87
2021/06/03 15:15:33;;;;;;;;;;;;;;;;;;4980475;28;20008;-88
2021/06/03 15:17:59;;;;;;;;;;;;;;;;;;4979190;28;19917;-87
2021/06/03 15:20:25;;;;;;;;;;;;;;;;;;4980134;28;19918;-87
2021/06/03 15:22:53;;;;;;;;;;;;;;;;;;4980445;28;20393;-87
2021/06/03 15:25:18;;;;;;;;;;;;;;;;;;4980165;28;19910;-86
2021/06/03 15:27:43;;;;;;;;;;;;;;;;;;4980794;28;19910;-87
2021/06/03 15:30:08;;;;;;;;;;;;;;;;;;4980083;28;19910;-88
2021/06/03 15:32:33;;;;;;;;;;;;;;;;;;4980592;28;20330;-86
2021/06/03 15:34:59;;;;;;;;;;;;;;;;;;4981995;28;19916;-89
2021/06/03 15:37:27;;;;;;;;;;;;;;;;;;4979181;28;20394;-86
2021/06/03 15:39:52;;;;;;;;;;;;;;;;;;4979004;28;19914;-85
2021/06/03 15:42:17;;;;;;;;;;;;;;;;;;4995991;28;19924;-86
2021/06/03 15:44:42;;;;;;;;;;;;;;;;;;4978768;28;19921;-86
2021/06/03 15:47:07;;;;;;;;;;;;;;;;;;4999167;28;20307;-87
2021/06/03 15:49:32;;;;;;;;;;;;;;;;;;4981544;28;19917;-88
2021/06/03 15:52:04;;;;;;;;;;;;;;;;;;4979299;28;19969;-85
2021/06/03 15:54:29;;;;;;;;;;;;;;;;;;4979156;28;19910;-87
2021/06/03 15:56:54;;;;;;;;;;;;;;;;;;4980920;28;19960;-84
2021/06/03 15:59:19;;;;;;;;;;;;;;;;;;4994893;28;19910;-82
2021/06/03 16:01:44;;;;;;;;;;;;;;;;;;4977546;28;19910;-84
2021/06/03 16:04:10;;;;;;;;;;;;;;;;;;4994931;28;19933;-78
2021/06/03 16:06:35;;;;;;;;;;;;;;;;;;4976604;28;19917;-76
2021/06/03 16:09:00;;;;;;;;;;;;;;;;;;4994298;28;19996;-78
2021/06/03 16:11:25;;;;;;;;;;;;;;;;;;4994201;28;19992;-78
2021/06/03 16:13:51;;;;;;;;;;;;;;;;;;4994193;28;19946;-81
2021/06/03 16:16:16;;;;;;;;;;;;;;;;;;4978387;28;19964;-81
2021/06/03 16:18:41;;;;;;;;;;;;;;;;;;4977432;28;19914;-84
2021/06/03 16:21:06;;;;;;;;;;;;;;;;;;4994230;28;19922;-80
2021/06/03 16:23:32;;;;;;;;;;;;;;;;;;4995704;28;19933;-80
2021/06/03 16:25:57;;;;;;;;;;;;;;;;;;4994834;28;19920;-82
2021/06/03 16:28:23;;;;;;;;;;;;;;;;;;4994045;28;20406;-78
2021/06/03 16:30:48;;;;;;;;;;;;;;;;;;4996295;28;20003;-80
2021/06/03 16:33:13;;;;;;;;;;;;;;;;;;4993814;28;19988;-79
2021/06/03 16:35:39;;;;;;;;;;;;;;;;;;4993866;28;19909;-83
2021/06/03 16:38:04;;;;;;;;;;;;;;;;;;4976444;28;19940;-81
2021/06/03 16:40:29;;;;;;;;;;;;;;;;;;4993937;28;19916;-84
2021/06/03 16:42:54;;;;;;;;;;;;;;;;;;4995690;28;19916;-79
2021/06/03 16:45:19;;;;;;;;;;;;;;;;;;4994066;28;19910;-80
2021/06/03 16:47:44;;;;;;;;;;;;;;;;;;4976114;28;20399;-80
2021/06/03 16:50:09;;;;;;;;;;;;;;;;;;4978714;28;19918;-79
2021/06/03 16:52:35;;;;;;;;;;;;;;;;;;4993093;28;20323;-79
2021/06/03 16:55:00;;;;;;;;;;;;;;;;;;4993498;28;19910;-78
2021/06/03 16:57:25;;;;;;;;;;;;;;;;;;4993313;28;19910;-79